createdAt,value
2018-11-03T00:02:15.915Z,86.44
2018-11-03T00:04:44.140Z,86.76
2018-11-03T00:07:12.382Z,87.00
2018-11-03T00:09:40.697Z,87.09
2018-11-03T00:12:08.933Z,86.55
2018-11-03T00:14:37.149Z,86.86
2018-11-03T00:17:05.539Z,87.01
2018-11-03T00:19:33.804Z,87.41
2018-11-03T00:22:02.051Z,87.79
2018-11-03T00:24:30.289Z,87.23
2018-11-03T00:26:58.522Z,86.98
2018-11-03T00:29:26.718Z,86.77
2018-11-03T00:31:54.964Z,86.88
2018-11-03T00:34:23.144Z,86.16
2018-11-03T00:36:51.701Z,86.17
2018-11-03T00:39:19.942Z,86.58
2018-11-03T00:41:48.124Z,86.13
2018-11-03T00:44:16.366Z,85.89
2018-11-03T00:46:44.569Z,85.85
2018-11-03T00:49:12.824Z,86.14
2018-11-03T00:51:41.465Z,85.84
2018-11-03T00:54:09.689Z,85.39
2018-11-03T00:56:37.927Z,85.86
2018-11-03T00:59:06.404Z,86.01
2018-11-03T01:01:34.635Z,86.49
2018-11-03T01:04:02.881Z,86.26
2018-11-03T01:06:31.093Z,86.74
2018-11-03T01:08:59.317Z,86.51
2018-11-03T01:11:27.567Z,86.24
2018-11-03T01:13:56.075Z,86.92
2018-11-03T01:16:24.457Z,87.08
2018-11-03T01:18:52.678Z,87.27
2018-11-03T01:21:20.947Z,87.24
2018-11-03T01:23:49.556Z,87.29
2018-11-03T01:26:17.646Z,87.43
2018-11-03T01:28:45.846Z,87.74
2018-11-03T01:31:14.380Z,87.92
2018-11-03T01:33:42.713Z,88.01
2018-11-03T01:36:10.958Z,87.84
2018-11-03T01:38:39.228Z,88.42
2018-11-03T01:41:07.475Z,88.78
2018-11-03T01:43:35.688Z,88.70
2018-11-03T01:46:04.105Z,87.98
2018-11-03T01:48:32.332Z,88.53
2018-11-03T01:51:00.908Z,88.47
2018-11-03T01:53:29.089Z,88.90
2018-11-03T01:55:57.340Z,88.69
2018-11-03T01:58:25.508Z,88.51
2018-11-03T02:00:53.736Z,88.82
2018-11-03T02:03:22.165Z,88.76
2018-11-03T02:05:50.404Z,88.32
2018-11-03T02:08:18.632Z,88.34
2018-11-03T02:10:46.869Z,88.53
2018-11-03T02:13:15.374Z,88.25
2018-11-03T02:15:43.592Z,88.41
2018-11-03T02:18:11.823Z,88.82
2018-11-03T02:20:40.048Z,89.40
2018-11-03T02:23:08.264Z,89.32
2018-11-03T02:25:36.460Z,89.31
2018-11-03T02:28:05.057Z,89.63
2018-11-03T02:30:33.261Z,89.83
2018-11-03T02:33:01.788Z,90.08
2018-11-03T02:35:29.968Z,90.12
2018-11-03T02:37:58.164Z,90.31
2018-11-03T02:40:26.406Z,90.12
2018-11-03T02:42:54.612Z,90.25
2018-11-03T02:45:22.900Z,90.21
2018-11-03T02:47:51.135Z,90.50
2018-11-03T02:50:19.363Z,90.05
2018-11-03T02:52:47.525Z,90.00
2018-11-03T02:55:15.759Z,90.00
2018-11-03T02:57:43.947Z,89.79
2018-11-03T03:00:12.127Z,89.50
2018-11-03T03:02:40.391Z,89.16
2018-11-03T03:05:09.555Z,89.04
2018-11-03T03:07:37.828Z,88.85
2018-11-03T03:10:08.591Z,88.51
2018-11-03T03:12:37.254Z,88.23
2018-11-03T03:15:07.274Z,88.67
2018-11-03T03:17:35.601Z,88.78
2018-11-03T03:20:05.049Z,88.67
2018-11-03T03:22:33.279Z,88.76
2018-11-03T03:25:01.456Z,89.08
2018-11-03T03:27:29.663Z,88.97
2018-11-03T03:29:57.865Z,88.46
2018-11-03T03:32:26.096Z,88.59
2018-11-03T03:34:54.305Z,88.36
2018-11-03T03:37:22.478Z,88.22
2018-11-03T03:39:50.700Z,88.75
2018-11-03T03:42:18.929Z,88.64
2018-11-03T03:44:47.177Z,89.03
2018-11-03T03:47:15.409Z,89.15
2018-11-03T03:49:43.694Z,89.28
2018-11-03T03:52:11.907Z,89.35
2018-11-03T03:54:40.682Z,89.39
2018-11-03T03:57:08.932Z,89.43
2018-11-03T03:59:37.134Z,90.04
2018-11-03T04:02:05.485Z,89.64
2018-11-03T04:04:33.716Z,90.01
2018-11-03T04:07:03.137Z,90.12
2018-11-03T04:09:31.338Z,90.36
2018-11-03T04:11:59.624Z,90.67
2018-11-03T04:14:27.811Z,90.55
2018-11-03T04:16:56.035Z,90.60
2018-11-03T04:19:24.231Z,90.78
2018-11-03T04:21:52.596Z,90.60
2018-11-03T04:24:20.791Z,90.83
2018-11-03T04:26:48.976Z,90.56
2018-11-03T04:29:17.178Z,91.01
2018-11-03T04:31:45.800Z,90.73
2018-11-03T04:34:14.016Z,90.76
2018-11-03T04:36:42.217Z,90.86
2018-11-03T04:39:10.415Z,90.84
2018-11-03T04:41:38.612Z,91.35
2018-11-03T04:44:06.964Z,91.28
2018-11-03T04:46:35.199Z,91.62
2018-11-03T04:49:03.803Z,91.33
2018-11-03T04:51:33.424Z,91.21
2018-11-03T04:54:01.646Z,91.42
2018-11-03T04:56:31.652Z,91.34
2018-11-03T04:58:59.876Z,91.62
2018-11-03T05:01:28.057Z,91.27
2018-11-03T05:03:56.290Z,91.61
2018-11-03T05:06:24.509Z,91.78
2018-11-03T05:08:52.776Z,91.94
2018-11-03T05:11:20.972Z,91.73
2018-11-03T05:13:49.219Z,91.77
2018-11-03T05:16:17.401Z,92.07
2018-11-03T05:18:45.616Z,92.45
2018-11-03T05:21:13.907Z,92.44
2018-11-03T05:23:42.060Z,92.29
2018-11-03T05:26:10.298Z,92.32
2018-11-03T05:28:38.521Z,92.26
2018-11-03T05:31:06.824Z,92.87
2018-11-03T05:33:35.011Z,92.79
2018-11-03T05:36:03.529Z,92.76
2018-11-03T05:38:31.742Z,92.95
2018-11-03T05:40:59.960Z,92.95
2018-11-03T05:43:28.159Z,92.83
2018-11-03T05:45:56.504Z,92.88
2018-11-03T05:48:24.740Z,92.93
2018-11-03T05:50:52.952Z,93.03
2018-11-03T05:53:21.203Z,93.50
2018-11-03T05:55:49.678Z,93.44
2018-11-03T05:58:17.851Z,93.39
2018-11-03T06:00:46.040Z,93.61
2018-11-03T06:03:14.563Z,93.51
2018-11-03T06:05:42.768Z,93.29
2018-11-03T06:08:10.935Z,93.12
2018-11-03T06:10:39.168Z,93.07
2018-11-03T06:13:07.397Z,92.96
2018-11-03T06:15:35.675Z,92.95
2018-11-03T06:18:04.377Z,92.96
2018-11-03T06:20:32.662Z,92.99
2018-11-03T06:23:00.918Z,92.87
2018-11-03T06:25:29.057Z,93.37
2018-11-03T06:27:57.328Z,93.41
2018-11-03T06:30:25.476Z,93.11
2018-11-03T06:32:53.704Z,93.03
2018-11-03T06:35:22.159Z,92.99
2018-11-03T06:37:50.166Z,92.94
2018-11-03T06:40:18.394Z,93.06
2018-11-03T06:42:46.625Z,93.37
2018-11-03T06:45:14.866Z,93.16
2018-11-03T06:47:43.092Z,93.39
2018-11-03T06:50:11.315Z,93.55
2018-11-03T06:52:39.508Z,93.24
2018-11-03T06:55:08.179Z,93.13
2018-11-03T06:57:36.523Z,93.41
2018-11-03T07:00:06.952Z,93.16
2018-11-03T07:02:35.188Z,93.18
2018-11-03T07:05:03.732Z,93.44
2018-11-03T07:07:32.017Z,93.62
2018-11-03T07:10:00.319Z,93.70
2018-11-03T07:12:28.752Z,93.88
2018-11-03T07:14:56.931Z,93.39
2018-11-03T07:17:25.219Z,92.99
2018-11-03T07:19:53.415Z,92.81
2018-11-03T07:22:21.672Z,93.01
2018-11-03T07:24:50.203Z,93.13
2018-11-03T07:27:18.441Z,92.88
2018-11-03T07:29:46.825Z,93.01
2018-11-03T07:32:14.958Z,92.81
2018-11-03T07:34:43.168Z,92.83
2018-11-03T07:37:11.448Z,92.76
2018-11-03T07:39:39.739Z,92.69
2018-11-03T07:42:07.993Z,92.31
2018-11-03T07:44:36.228Z,92.13
2018-11-03T07:47:04.577Z,92.30
2018-11-03T07:49:32.820Z,92.03
2018-11-03T07:52:01.389Z,92.23
2018-11-03T07:54:29.672Z,92.08
2018-11-03T07:56:57.853Z,92.61
2018-11-03T07:59:26.435Z,93.01
2018-11-03T08:01:54.671Z,92.66
2018-11-03T08:04:22.985Z,93.06
2018-11-03T08:06:51.195Z,92.34
2018-11-03T08:09:19.930Z,92.32
2018-11-03T08:11:48.124Z,92.12
2018-11-03T08:14:16.453Z,92.33
2018-11-03T08:16:44.713Z,92.71
2018-11-03T08:19:12.956Z,92.99
2018-11-03T08:21:41.190Z,93.05
2018-11-03T08:24:09.504Z,92.68
2018-11-03T08:26:37.773Z,92.63
2018-11-03T08:29:06.012Z,93.06
2018-11-03T08:31:34.247Z,92.80
2018-11-03T08:34:02.947Z,92.83
2018-11-03T08:36:31.261Z,93.15
2018-11-03T08:38:59.545Z,93.16
2018-11-03T08:41:27.789Z,93.10
2018-11-03T08:43:56.075Z,92.63
2018-11-03T08:46:24.414Z,92.51
2018-11-03T08:48:52.677Z,92.43
2018-11-03T08:51:20.897Z,92.22
2018-11-03T08:53:49.907Z,92.14
2018-11-03T08:56:18.140Z,91.97
2018-11-03T08:58:46.381Z,91.99
2018-11-03T09:01:14.948Z,91.84
2018-11-03T09:03:43.214Z,91.78
2018-11-03T09:06:11.418Z,91.69
2018-11-03T09:08:40.684Z,91.15
2018-11-03T09:11:09.761Z,91.52
2018-11-03T09:13:38.003Z,91.45
2018-11-03T09:16:06.290Z,91.51
2018-11-03T09:18:34.560Z,91.17
2018-11-03T09:21:02.760Z,91.17
2018-11-03T09:23:31.399Z,91.44
2018-11-03T09:25:59.652Z,91.03
2018-11-03T09:28:27.874Z,90.58
2018-11-03T09:30:56.134Z,90.17
2018-11-03T09:33:24.386Z,90.29
2018-11-03T09:35:52.712Z,90.82
2018-11-03T09:38:20.972Z,90.52
2018-11-03T09:40:49.158Z,90.14
2018-11-03T09:43:17.455Z,90.26
2018-11-03T09:45:45.720Z,90.06
2018-11-03T09:48:14.003Z,89.91
2018-11-03T09:50:43.165Z,89.51
2018-11-03T09:53:11.499Z,89.86
2018-11-03T09:55:39.756Z,89.50
2018-11-03T09:58:08.061Z,89.54
2018-11-03T10:00:36.304Z,89.63
2018-11-03T10:03:04.640Z,90.20
2018-11-03T10:05:33.919Z,90.40
2018-11-03T10:08:02.320Z,90.39
2018-11-03T10:10:30.584Z,90.56
2018-11-03T10:12:58.915Z,90.29
2018-11-03T10:15:27.824Z,89.66
2018-11-03T10:17:56.093Z,89.45
2018-11-03T10:20:24.328Z,89.74
2018-11-03T10:22:52.700Z,89.30
2018-11-03T10:25:20.887Z,89.23
2018-11-03T10:27:49.136Z,89.09
2018-11-03T10:30:17.892Z,88.59
2018-11-03T10:32:46.602Z,88.36
2018-11-03T10:35:15.163Z,88.02
2018-11-03T10:37:43.772Z,87.53
2018-11-03T10:40:14.135Z,87.39
2018-11-03T10:42:42.633Z,86.77
2018-11-03T10:45:12.922Z,86.47
2018-11-03T10:47:41.349Z,86.71
2018-11-03T10:50:13.227Z,86.58
2018-11-03T10:52:42.308Z,85.49
2018-11-03T10:55:12.184Z,85.86
2018-11-03T10:57:41.318Z,85.55
2018-11-03T11:00:19.071Z,85.79
2018-11-03T11:03:50.724Z,85.81
2018-11-03T11:06:24.576Z,85.72
2018-11-03T11:08:58.359Z,85.33
2018-11-03T11:11:32.263Z,85.38
2018-11-03T11:14:00.504Z,84.33
2018-11-03T11:16:28.764Z,84.35
2018-11-03T11:18:56.970Z,83.28
2018-11-03T11:21:25.243Z,82.20
2018-11-03T11:23:53.613Z,81.48
2018-11-03T11:26:21.849Z,80.60
2018-11-03T11:28:51.092Z,80.85
2018-11-03T11:31:19.330Z,80.82
2018-11-03T11:33:47.558Z,80.38
2018-11-03T11:36:15.792Z,79.82
2018-11-03T11:38:44.078Z,78.72
2018-11-03T11:41:12.268Z,77.89
2018-11-03T11:43:41.217Z,77.40
2018-11-03T11:46:09.439Z,77.33
2018-11-03T11:48:37.645Z,77.51
2018-11-03T11:51:06.035Z,77.36
2018-11-03T11:53:34.298Z,76.82
2018-11-03T11:56:02.688Z,76.97
2018-11-03T11:58:30.895Z,76.86
2018-11-03T12:00:59.112Z,76.35
2018-11-03T12:03:27.379Z,76.61
2018-11-03T12:05:55.628Z,76.30
2018-11-03T12:08:23.888Z,76.72
2018-11-03T12:10:52.134Z,76.36
2018-11-03T12:13:20.435Z,76.26
2018-11-03T12:15:49.384Z,76.73
2018-11-03T12:18:17.609Z,75.88
2018-11-03T12:20:45.933Z,76.53
2018-11-03T12:23:14.205Z,76.34
2018-11-03T12:25:42.480Z,75.91
2018-11-03T12:28:10.669Z,76.71
2018-11-03T12:30:38.991Z,77.24
2018-11-03T12:33:07.284Z,77.96
2018-11-03T12:35:35.843Z,78.18
2018-11-03T12:38:04.138Z,78.05
2018-11-03T12:40:32.515Z,77.74
2018-11-03T12:43:00.780Z,78.06
2018-11-03T12:45:29.110Z,77.92
2018-11-03T12:47:57.433Z,77.95
2018-11-03T12:50:25.685Z,77.95
2018-11-03T12:52:53.939Z,78.13
2018-11-03T12:55:22.314Z,78.47
2018-11-03T12:57:51.627Z,78.66
2018-11-03T13:00:19.859Z,78.18
2018-11-03T13:02:48.139Z,78.14
2018-11-03T13:05:16.786Z,78.92
2018-11-03T13:07:45.561Z,78.61
2018-11-03T13:10:13.800Z,78.87
2018-11-03T13:12:42.549Z,78.99
2018-11-03T13:15:11.903Z,78.79
2018-11-03T13:17:40.229Z,78.39
2018-11-03T13:20:10.875Z,78.03
2018-11-03T13:22:39.466Z,77.81
2018-11-03T13:25:08.433Z,78.05
2018-11-03T13:27:36.764Z,77.94
2018-11-03T13:30:06.125Z,77.19
2018-11-03T13:32:34.383Z,77.75
2018-11-03T13:35:02.684Z,77.41
2018-11-03T13:37:30.948Z,77.56
2018-11-03T13:39:59.160Z,76.79
2018-11-03T13:42:27.351Z,76.83
2018-11-03T13:44:56.387Z,76.60
2018-11-03T13:47:24.729Z,76.49
2018-11-03T13:49:52.868Z,76.50
2018-11-03T13:52:21.160Z,76.50
2018-11-03T13:54:49.403Z,76.61
2018-11-03T13:57:17.607Z,76.85
2018-11-03T13:59:45.943Z,76.26
2018-11-03T14:02:14.208Z,76.66
2018-11-03T14:04:43.428Z,76.65
2018-11-03T14:07:11.707Z,76.74
2018-11-03T14:09:39.963Z,76.58
2018-11-03T14:12:08.298Z,76.18
2018-11-03T14:14:36.537Z,76.12
2018-11-03T14:17:04.828Z,75.99
2018-11-03T14:19:33.378Z,75.67
2018-11-03T14:22:01.844Z,75.97
2018-11-03T14:24:30.051Z,76.50
2018-11-03T14:26:58.620Z,76.90
2018-11-03T14:29:26.851Z,76.73
2018-11-03T14:31:56.208Z,77.06
2018-11-03T14:34:24.468Z,77.46
2018-11-03T14:36:52.693Z,77.48
2018-11-03T14:39:20.968Z,77.53
2018-11-03T14:41:49.192Z,77.87
2018-11-03T14:44:17.456Z,77.98
2018-11-03T14:46:45.752Z,77.82
2018-11-03T14:49:14.637Z,78.06
2018-11-03T14:51:42.890Z,78.60
2018-11-03T14:54:11.164Z,78.51
2018-11-03T14:56:39.425Z,78.55
2018-11-03T14:59:07.705Z,78.74
2018-11-03T15:01:35.952Z,78.45
2018-11-03T15:04:05.518Z,79.15
2018-11-03T15:06:33.820Z,79.04
2018-11-03T15:09:02.089Z,79.04
2018-11-03T15:11:30.391Z,79.49
2018-11-03T15:13:59.259Z,79.72
2018-11-03T15:16:27.242Z,79.76
2018-11-03T15:18:55.568Z,79.90
2018-11-03T15:21:23.883Z,80.25
2018-11-03T15:23:52.087Z,80.45
2018-11-03T15:26:21.292Z,80.44
2018-11-03T15:28:49.550Z,80.63
2018-11-03T15:31:17.868Z,80.78
2018-11-03T15:33:46.112Z,80.71
2018-11-03T15:36:14.351Z,81.25
2018-11-03T15:38:42.584Z,81.55
2018-11-03T15:41:10.895Z,81.78
2018-11-03T15:43:39.872Z,81.60
2018-11-03T15:46:08.140Z,81.71
2018-11-03T15:48:36.429Z,81.69
2018-11-03T15:51:05.023Z,81.85
2018-11-03T15:53:33.378Z,82.18
2018-11-03T15:56:01.663Z,82.71
2018-11-03T15:58:29.954Z,82.72
2018-11-03T16:00:58.216Z,83.18
2018-11-03T16:03:26.498Z,82.18
2018-11-03T16:05:54.781Z,82.46
2018-11-03T16:08:23.024Z,82.38
2018-11-03T16:10:51.272Z,82.59
2018-11-03T16:13:20.556Z,82.88
2018-11-03T16:15:48.773Z,82.69
2018-11-03T16:18:17.186Z,82.87
2018-11-03T16:20:45.443Z,83.94
2018-11-03T16:23:13.676Z,83.49
2018-11-03T16:25:41.975Z,83.69
2018-11-03T16:28:10.187Z,83.38
2018-11-03T16:30:38.451Z,84.00
2018-11-03T16:33:06.779Z,83.96
2018-11-03T16:35:35.163Z,83.76
2018-11-03T16:38:03.425Z,83.70
2018-11-03T16:40:31.694Z,83.69
2018-11-03T16:42:59.936Z,83.96
2018-11-03T16:45:28.228Z,83.79
2018-11-03T16:47:56.467Z,83.33
2018-11-03T16:50:24.729Z,83.52
2018-11-03T16:52:52.957Z,83.73
2018-11-03T16:55:21.228Z,83.68
2018-11-03T16:57:49.461Z,83.42
2018-11-03T17:00:17.717Z,83.19
2018-11-03T17:02:45.985Z,82.53
2018-11-03T17:05:14.769Z,82.60
2018-11-03T17:07:42.989Z,83.28
2018-11-03T17:10:13.157Z,82.88
2018-11-03T17:12:43.047Z,83.04
2018-11-03T17:15:12.001Z,83.70
2018-11-03T17:17:40.398Z,83.65
2018-11-03T17:20:09.506Z,83.31
2018-11-03T17:22:38.183Z,83.18
2018-11-03T17:25:08.346Z,82.88
2018-11-03T17:27:37.169Z,83.11
2018-11-03T17:30:07.504Z,83.23
2018-11-03T17:32:37.376Z,82.78
2018-11-03T17:35:06.086Z,82.69
2018-11-03T17:37:34.372Z,81.49
2018-11-03T17:40:03.298Z,81.46
2018-11-03T17:42:31.881Z,82.33
2018-11-03T17:45:00.168Z,81.90
2018-11-03T17:47:29.936Z,82.02
2018-11-03T17:49:58.272Z,81.76
2018-11-03T17:52:26.523Z,81.62
2018-11-03T17:54:55.721Z,81.68
2018-11-03T17:57:23.877Z,81.55
2018-11-03T17:59:52.181Z,81.95
2018-11-03T18:02:20.428Z,81.42
2018-11-03T18:04:48.762Z,81.35
2018-11-03T18:07:17.291Z,81.50
2018-11-03T18:09:45.540Z,80.20
2018-11-03T18:12:13.772Z,80.05
2018-11-03T18:14:42.177Z,79.36
2018-11-03T18:17:11.528Z,79.75
2018-11-03T18:19:39.806Z,80.15
2018-11-03T18:22:08.115Z,80.67
2018-11-03T18:24:36.397Z,79.39
2018-11-03T18:27:04.957Z,79.21
2018-11-03T18:29:33.221Z,78.80
2018-11-03T18:32:02.889Z,79.42
2018-11-03T18:34:31.119Z,79.62
2018-11-03T18:36:59.394Z,79.37
2018-11-03T18:39:27.634Z,79.49
2018-11-03T18:41:55.882Z,79.47
2018-11-03T18:44:24.159Z,79.46
2018-11-03T18:46:52.676Z,79.15
2018-11-03T18:49:20.905Z,79.69
2018-11-03T18:51:49.210Z,79.10
2018-11-03T18:54:17.793Z,79.30
2018-11-03T18:56:46.038Z,79.11
2018-11-03T18:59:14.292Z,78.80
2018-11-03T19:01:42.543Z,79.77
2018-11-03T19:04:10.911Z,79.30
2018-11-03T19:06:39.179Z,78.59
2018-11-03T19:09:07.989Z,78.62
2018-11-03T19:11:36.325Z,78.92
2018-11-03T19:14:04.694Z,78.49
2018-11-03T19:16:32.981Z,78.73
2018-11-03T19:19:01.770Z,78.93
2018-11-03T19:21:30.035Z,79.21
2018-11-03T19:23:58.438Z,79.62
2018-11-03T19:26:26.683Z,79.94
2018-11-03T19:28:55.028Z,78.65
2018-11-03T19:31:23.462Z,78.57
2018-11-03T19:33:51.749Z,78.54
2018-11-03T19:36:20.011Z,78.70
2018-11-03T19:38:48.290Z,78.78
2018-11-03T19:41:16.668Z,78.88
2018-11-03T19:43:44.892Z,78.66
2018-11-03T19:46:13.208Z,79.01
2018-11-03T19:48:41.740Z,78.94
2018-11-03T19:51:09.985Z,78.90
2018-11-03T19:53:38.295Z,79.03
2018-11-03T19:56:06.609Z,78.56
2018-11-03T19:58:34.828Z,78.60
2018-11-03T20:01:03.349Z,78.39
2018-11-03T20:03:31.686Z,78.88
2018-11-03T20:05:59.933Z,79.06
2018-11-03T20:08:28.229Z,78.90
2018-11-03T20:10:56.499Z,78.53
2018-11-03T20:13:24.744Z,78.77
2018-11-03T20:15:53.008Z,79.15
2018-11-03T20:18:21.355Z,79.35
2018-11-03T20:20:49.683Z,79.85
2018-11-03T20:23:17.944Z,80.18
2018-11-03T20:25:46.169Z,80.40
2018-11-03T20:28:14.500Z,80.52
2018-11-03T20:30:43.775Z,80.29
2018-11-03T20:33:12.057Z,80.57
2018-11-03T20:35:40.367Z,80.53
2018-11-03T20:38:08.642Z,80.10
2018-11-03T20:40:36.913Z,80.19
2018-11-03T20:43:05.287Z,80.36
2018-11-03T20:45:33.544Z,80.54
2018-11-03T20:48:02.057Z,80.77
2018-11-03T20:50:30.339Z,80.34
2018-11-03T20:52:58.614Z,80.55
2018-11-03T20:55:26.978Z,80.69
2018-11-03T20:57:55.299Z,80.98
2018-11-03T21:00:23.576Z,80.98
2018-11-03T21:02:51.837Z,81.21
2018-11-03T21:05:21.315Z,80.95
2018-11-03T21:07:49.579Z,81.09
2018-11-03T21:10:17.841Z,80.98
2018-11-03T21:12:46.141Z,81.29
2018-11-03T21:15:14.540Z,81.79
2018-11-03T21:17:42.841Z,81.75
2018-11-03T21:20:11.117Z,81.38
2018-11-03T21:22:39.489Z,81.66
2018-11-03T21:25:07.782Z,81.72
2018-11-03T21:27:36.036Z,81.58
2018-11-03T21:30:05.232Z,81.97
2018-11-03T21:32:33.502Z,82.03
2018-11-03T21:35:02.690Z,81.74
2018-11-03T21:37:30.924Z,81.59
2018-11-03T21:39:59.200Z,81.72
2018-11-03T21:42:27.823Z,81.84
2018-11-03T21:44:57.277Z,81.98
2018-11-03T21:47:25.484Z,81.88
2018-11-03T21:49:53.847Z,82.01
2018-11-03T21:52:22.139Z,82.21
2018-11-03T21:54:50.369Z,82.20
2018-11-03T21:57:18.644Z,82.15
2018-11-03T21:59:47.291Z,82.04
2018-11-03T22:02:15.741Z,82.02
2018-11-03T22:04:44.677Z,81.89
2018-11-03T22:07:13.101Z,81.98
2018-11-03T22:09:41.363Z,82.35
2018-11-03T22:12:09.665Z,82.05
2018-11-03T22:14:38.439Z,81.68
2018-11-03T22:17:06.754Z,81.54
2018-11-03T22:19:35.338Z,81.01
2018-11-03T22:22:03.656Z,81.34
2018-11-03T22:24:32.853Z,81.80
2018-11-03T22:27:01.606Z,82.13
2018-11-03T22:29:29.872Z,81.72
2018-11-03T22:31:58.073Z,81.91
2018-11-03T22:34:26.321Z,81.94
2018-11-03T22:36:54.602Z,81.87
2018-11-03T22:39:22.858Z,81.78
2018-11-03T22:41:51.169Z,82.18
2018-11-03T22:44:19.392Z,82.32
2018-11-03T22:46:47.684Z,82.26
2018-11-03T22:49:15.920Z,82.10
2018-11-03T22:51:44.213Z,81.42
2018-11-03T22:54:12.765Z,80.15
2018-11-03T22:56:41.721Z,80.19
2018-11-03T22:59:10.110Z,80.94
2018-11-03T23:01:38.352Z,81.70
2018-11-03T23:04:06.663Z,80.99
2018-11-03T23:06:36.284Z,81.07
2018-11-03T23:09:06.152Z,79.83
2018-11-03T23:11:34.429Z,80.58
2018-11-03T23:14:02.745Z,80.68
2018-11-03T23:16:31.042Z,81.14
2018-11-03T23:18:59.273Z,80.96
2018-11-03T23:21:27.484Z,80.95
2018-11-03T23:23:55.803Z,81.40
2018-11-03T23:26:24.192Z,80.09
2018-11-03T23:28:52.548Z,80.35
2018-11-03T23:31:20.885Z,80.45
2018-11-03T23:33:49.254Z,79.83
2018-11-03T23:36:17.517Z,80.44
2018-11-03T23:38:45.769Z,80.85
2018-11-03T23:41:14.008Z,81.01
2018-11-03T23:43:42.552Z,81.12
2018-11-03T23:46:10.788Z,81.74
2018-11-03T23:48:39.061Z,81.23
2018-11-03T23:51:07.700Z,80.96
2018-11-03T23:53:35.928Z,80.40
2018-11-03T23:56:04.428Z,79.54
2018-11-03T23:58:32.937Z,79.09
